createdAt,value
2023-04-02T00:00:52.819Z,951.5212
2023-04-02T00:01:54.241Z,951.5112
2023-04-02T00:02:55.730Z,951.5320
2023-04-02T00:03:57.173Z,951.5452
2023-04-02T00:04:58.598Z,951.5308
2023-04-02T00:05:59.964Z,951.5480
2023-04-02T00:07:01.327Z,951.5488
2023-04-02T00:08:02.740Z,951.5780
2023-04-02T00:09:04.116Z,951.5348
2023-04-02T00:10:05.549Z,951.5056
2023-04-02T00:11:06.958Z,951.5204
2023-04-02T00:12:08.339Z,951.5356
2023-04-02T00:13:09.735Z,951.5144
2023-04-02T00:14:11.186Z,951.4984
2023-04-02T00:15:12.635Z,951.4760
2023-04-02T00:16:14.018Z,951.4596
2023-04-02T00:17:15.437Z,951.4656
2023-04-02T00:18:16.902Z,951.4524
2023-04-02T00:19:18.279Z,951.4948
2023-04-02T00:20:19.628Z,951.4708
2023-04-02T00:21:20.970Z,951.4840
2023-04-02T00:22:22.377Z,951.4812
2023-04-02T00:23:23.770Z,951.5012
2023-04-02T00:24:25.199Z,951.5320
2023-04-02T00:25:26.576Z,951.5488
2023-04-02T00:26:28.037Z,951.5376
2023-04-02T00:27:29.363Z,951.5324
2023-04-02T00:28:30.749Z,951.5264
2023-04-02T00:29:32.133Z,951.5288
2023-04-02T00:30:33.508Z,951.5288
2023-04-02T00:31:34.900Z,951.5392
2023-04-02T00:32:36.307Z,951.5276
2023-04-02T00:33:37.742Z,951.5412
2023-04-02T00:34:39.204Z,951.5152
2023-04-02T00:35:40.660Z,951.5216
2023-04-02T00:36:42.171Z,951.5020
2023-04-02T00:37:43.571Z,951.5188
2023-04-02T00:38:46.665Z,951.5148
2023-04-02T00:39:46.425Z,951.5000
2023-04-02T00:40:47.774Z,951.5020
2023-04-02T00:41:49.197Z,951.5004
2023-04-02T00:42:50.607Z,951.4972
2023-04-02T00:43:52.051Z,951.5160
2023-04-02T00:44:53.504Z,951.5048
2023-04-02T00:45:54.923Z,951.4896
2023-04-02T00:46:56.354Z,951.4984
2023-04-02T00:47:57.854Z,951.5156
2023-04-02T00:48:59.241Z,951.5284
2023-04-02T00:50:00.717Z,951.5340
2023-04-02T00:51:02.093Z,951.5312
2023-04-02T00:52:03.531Z,951.5240
2023-04-02T00:53:04.920Z,951.5320
2023-04-02T00:54:06.378Z,951.5204
2023-04-02T00:55:07.793Z,951.5172
2023-04-02T00:56:09.280Z,951.5280
2023-04-02T00:57:10.653Z,951.5200
2023-04-02T00:58:12.131Z,951.5212
2023-04-02T00:59:13.495Z,951.5256
2023-04-02T01:00:14.979Z,951.5276
2023-04-02T01:01:16.395Z,951.5064
2023-04-02T01:02:18.070Z,951.5088
2023-04-02T01:03:19.666Z,951.5048
2023-04-02T01:04:21.515Z,951.4924
2023-04-02T01:05:23.068Z,951.4856
2023-04-02T01:06:24.471Z,951.4700
2023-04-02T01:07:26.112Z,951.4476
2023-04-02T01:08:27.534Z,951.4300
2023-04-02T01:09:28.882Z,951.4316
2023-04-02T01:10:30.343Z,951.4480
2023-04-02T01:11:31.879Z,951.4528
2023-04-02T01:12:33.381Z,951.4552
2023-04-02T01:13:34.782Z,951.4660
2023-04-02T01:14:36.204Z,951.4728
2023-04-02T01:15:38.110Z,951.4800
2023-04-02T01:16:39.782Z,951.4892
2023-04-02T01:17:41.182Z,951.4908
2023-04-02T01:18:42.583Z,951.5000
2023-04-02T01:19:43.938Z,951.5084
2023-04-02T01:20:45.384Z,951.5096
2023-04-02T01:21:46.796Z,951.5188
2023-04-02T01:22:48.256Z,951.5264
2023-04-02T01:23:49.605Z,951.5204
2023-04-02T01:24:50.993Z,951.5428
2023-04-02T01:25:52.449Z,951.5644
2023-04-02T01:26:53.777Z,951.5780
2023-04-02T01:27:55.182Z,951.5828
2023-04-02T01:28:56.575Z,951.5832
2023-04-02T01:29:57.955Z,951.5812
2023-04-02T01:30:59.346Z,951.5732
2023-04-02T01:32:00.791Z,951.5664
2023-04-02T01:33:02.255Z,951.5448
2023-04-02T01:34:03.674Z,951.5440
2023-04-02T01:35:05.039Z,951.5620
2023-04-02T01:36:06.419Z,951.5800
2023-04-02T01:37:07.813Z,951.5832
2023-04-02T01:38:09.205Z,951.6000
2023-04-02T01:39:10.628Z,951.6112
2023-04-02T01:40:12.023Z,951.6176
2023-04-02T01:41:13.407Z,951.6300
2023-04-02T01:42:14.824Z,951.6268
2023-04-02T01:43:16.195Z,951.6236
2023-04-02T01:44:17.553Z,951.6156
2023-04-02T01:45:18.955Z,951.6256
2023-04-02T01:46:20.435Z,951.6208
2023-04-02T01:47:21.768Z,951.6152
2023-04-02T01:48:23.208Z,951.6156
2023-04-02T01:49:24.573Z,951.6152
2023-04-02T01:50:25.977Z,951.6060
2023-04-02T01:51:27.394Z,951.6120
2023-04-02T01:52:28.882Z,951.6216
2023-04-02T01:53:30.222Z,951.6184
2023-04-02T01:54:31.665Z,951.6124
2023-04-02T01:55:33.328Z,951.6140
2023-04-02T01:56:35.179Z,951.6204
2023-04-02T01:57:36.572Z,951.6248
2023-04-02T01:58:37.950Z,951.6272
2023-04-02T01:59:39.369Z,951.6248
2023-04-02T02:00:40.902Z,951.6408
2023-04-02T02:01:42.467Z,951.6496
2023-04-02T02:02:43.918Z,951.6528
2023-04-02T02:03:45.400Z,951.6580
2023-04-02T02:04:46.853Z,951.6604
2023-04-02T02:05:48.218Z,951.6720
2023-04-02T02:06:49.632Z,951.6780
2023-04-02T02:07:51.039Z,951.6840
2023-04-02T02:08:52.440Z,951.7020
2023-04-02T02:09:53.787Z,951.7236
2023-04-02T02:10:55.194Z,951.7384
2023-04-02T02:11:56.564Z,951.7356
2023-04-02T02:12:57.998Z,951.7376
2023-04-02T02:13:59.356Z,951.7444
2023-04-02T02:15:00.814Z,951.7484
2023-04-02T02:16:02.189Z,951.7608
2023-04-02T02:17:03.575Z,951.7728
2023-04-02T02:18:04.927Z,951.7624
2023-04-02T02:19:06.322Z,951.7588
2023-04-02T02:20:07.741Z,951.7596
2023-04-02T02:21:09.114Z,951.7600
2023-04-02T02:22:10.547Z,951.7488
2023-04-02T02:23:11.936Z,951.7324
2023-04-02T02:24:13.414Z,951.7184
2023-04-02T02:25:14.827Z,951.7212
2023-04-02T02:26:16.238Z,951.7360
2023-04-02T02:27:17.587Z,951.7436
2023-04-02T02:28:19.002Z,951.7324
2023-04-02T02:29:20.384Z,951.7348
2023-04-02T02:30:21.770Z,951.7504
2023-04-02T02:31:23.270Z,951.7792
2023-04-02T02:32:24.701Z,951.8040
2023-04-02T02:33:26.079Z,951.8400
2023-04-02T02:34:27.469Z,951.8588
2023-04-02T02:35:28.983Z,951.8640
2023-04-02T02:36:30.364Z,951.8724
2023-04-02T02:37:31.741Z,951.8980
2023-04-02T02:38:33.147Z,951.9224
2023-04-02T02:39:34.635Z,951.9464
2023-04-02T02:40:36.049Z,951.9624
2023-04-02T02:41:37.441Z,951.9776
2023-04-02T02:42:38.832Z,951.9920
2023-04-02T02:43:40.272Z,952.0004
2023-04-02T02:44:41.670Z,952.0256
2023-04-02T02:45:43.071Z,952.0348
2023-04-02T02:46:44.437Z,952.0448
2023-04-02T02:47:45.885Z,952.0536
2023-04-02T02:48:47.217Z,952.0692
2023-04-02T02:49:48.632Z,952.0616
2023-04-02T02:50:50.060Z,952.0752
2023-04-02T02:51:51.441Z,952.0696
2023-04-02T02:52:52.849Z,952.0672
2023-04-02T02:53:54.249Z,952.0836
2023-04-02T02:54:55.917Z,952.0884
2023-04-02T02:55:57.331Z,952.0760
2023-04-02T02:56:58.716Z,952.0888
2023-04-02T02:58:00.142Z,952.1108
2023-04-02T02:59:01.516Z,952.1060
2023-04-02T03:00:02.962Z,952.1084
2023-04-02T03:01:04.402Z,952.1128
2023-04-02T03:02:05.762Z,952.1248
2023-04-02T03:03:07.238Z,952.1260
2023-04-02T03:04:09.000Z,952.1400
2023-04-02T03:05:10.674Z,952.1476
2023-04-02T03:06:12.100Z,952.1516
2023-04-02T03:07:13.485Z,952.1480
2023-04-02T03:08:14.975Z,952.1640
2023-04-02T03:09:16.398Z,952.1720
2023-04-02T03:10:17.816Z,952.1740
2023-04-02T03:11:19.277Z,952.1912
2023-04-02T03:12:20.685Z,952.1952
2023-04-02T03:13:22.066Z,952.2120
2023-04-02T03:14:23.446Z,952.2200
2023-04-02T03:15:24.798Z,952.2380
2023-04-02T03:16:26.297Z,952.2444
2023-04-02T03:17:27.732Z,952.2612
2023-04-02T03:18:29.155Z,952.2772
2023-04-02T03:19:30.566Z,952.2988
2023-04-02T03:20:31.951Z,952.3116
2023-04-02T03:21:33.399Z,952.3212
2023-04-02T03:22:34.776Z,952.3180
2023-04-02T03:23:36.164Z,952.3172
2023-04-02T03:24:37.524Z,952.3132
2023-04-02T03:25:38.979Z,952.3204
2023-04-02T03:26:40.308Z,952.3224
2023-04-02T03:27:41.755Z,952.3268
2023-04-02T03:28:43.135Z,952.3476
2023-04-02T03:29:44.575Z,952.3496
2023-04-02T03:30:46.028Z,952.3548
2023-04-02T03:31:47.585Z,952.3484
2023-04-02T03:32:49.112Z,952.3416
2023-04-02T03:33:50.596Z,952.3508
2023-04-02T03:34:52.059Z,952.3524
2023-04-02T03:35:53.611Z,952.3528
2023-04-02T03:36:55.065Z,952.3312
2023-04-02T03:37:56.547Z,952.3456
2023-04-02T03:38:58.105Z,952.3624
2023-04-02T03:39:59.594Z,952.3612
2023-04-02T03:41:01.173Z,952.3692
2023-04-02T03:42:02.553Z,952.3880
2023-04-02T03:43:04.015Z,952.3924
2023-04-02T03:44:05.514Z,952.4052
2023-04-02T03:45:07.156Z,952.4180
2023-04-02T03:46:08.926Z,952.4376
2023-04-02T03:47:10.381Z,952.4528
2023-04-02T03:48:11.841Z,952.4752
2023-04-02T03:49:13.324Z,952.4868
2023-04-02T03:50:14.796Z,952.4816
2023-04-02T03:51:16.307Z,952.4948
2023-04-02T03:52:17.779Z,952.5112
2023-04-02T03:53:19.242Z,952.5264
2023-04-02T03:54:20.720Z,952.5332
2023-04-02T03:55:22.253Z,952.5456
2023-04-02T03:56:23.636Z,952.5528
2023-04-02T03:57:25.174Z,952.5444
2023-04-02T03:58:26.721Z,952.5376
2023-04-02T03:59:28.283Z,952.5436
2023-04-02T04:00:29.703Z,952.5456
2023-04-02T04:01:31.209Z,952.5440
2023-04-02T04:02:32.652Z,952.5316
2023-04-02T04:03:34.181Z,952.5292
2023-04-02T04:04:35.730Z,952.5412
2023-04-02T04:05:37.456Z,952.5372
2023-04-02T04:06:39.097Z,952.5508
2023-04-02T04:07:40.520Z,952.5664
2023-04-02T04:08:41.949Z,952.5520
2023-04-02T04:09:43.413Z,952.5412
2023-04-02T04:10:44.890Z,952.5148
2023-04-02T04:11:46.346Z,952.5236
2023-04-02T04:12:47.915Z,952.5420
2023-04-02T04:13:49.384Z,952.5396
2023-04-02T04:14:50.851Z,952.5340
2023-04-02T04:15:52.275Z,952.5408
2023-04-02T04:16:54.003Z,952.5604
2023-04-02T04:17:55.950Z,952.5796
2023-04-02T04:18:57.396Z,952.6008
2023-04-02T04:19:58.856Z,952.6128
2023-04-02T04:21:00.396Z,952.6244
2023-04-02T04:22:01.850Z,952.6400
2023-04-02T04:23:03.268Z,952.6428
2023-04-02T04:24:04.863Z,952.6376
2023-04-02T04:25:06.285Z,952.6380
2023-04-02T04:26:07.731Z,952.6524
2023-04-02T04:27:09.182Z,952.6612
2023-04-02T04:28:10.653Z,952.6800
2023-04-02T04:29:12.070Z,952.6832
2023-04-02T04:30:13.641Z,952.6844
2023-04-02T04:31:15.103Z,952.6780
2023-04-02T04:32:16.609Z,952.6736
2023-04-02T04:33:18.246Z,952.6776
2023-04-02T04:34:19.697Z,952.6868
2023-04-02T04:35:21.144Z,952.6912
2023-04-02T04:36:22.586Z,952.7008
2023-04-02T04:37:24.077Z,952.6972
2023-04-02T04:38:25.562Z,952.7076
2023-04-02T04:39:27.154Z,952.7184
2023-04-02T04:40:28.602Z,952.7308
2023-04-02T04:41:30.049Z,952.7420
2023-04-02T04:42:31.491Z,952.7520
2023-04-02T04:43:32.982Z,952.7568
2023-04-02T04:44:34.445Z,952.7712
2023-04-02T04:45:36.221Z,952.7800
2023-04-02T04:46:37.882Z,952.7968
2023-04-02T04:47:39.373Z,952.8004
2023-04-02T04:48:40.813Z,952.8020
2023-04-02T04:49:42.266Z,952.8140
2023-04-02T04:50:43.705Z,952.8332
2023-04-02T04:51:45.179Z,952.8424
2023-04-02T04:52:46.632Z,952.8596
2023-04-02T04:53:48.185Z,952.8792
2023-04-02T04:54:49.663Z,952.8996
2023-04-02T04:55:51.104Z,952.9004
2023-04-02T04:56:52.606Z,952.9180
2023-04-02T04:57:54.040Z,952.9084
2023-04-02T04:58:55.454Z,952.9180
2023-04-02T04:59:56.878Z,952.9016
2023-04-02T05:00:58.321Z,952.9108
2023-04-02T05:01:59.793Z,952.9104
2023-04-02T05:03:01.373Z,952.9012
2023-04-02T05:04:02.791Z,952.9000
2023-04-02T05:05:04.317Z,952.8992
2023-04-02T05:06:05.764Z,952.8992
2023-04-02T05:07:07.235Z,952.8896
2023-04-02T05:08:08.664Z,952.8864
2023-04-02T05:09:10.080Z,952.8968
2023-04-02T05:10:11.563Z,952.8928
2023-04-02T05:11:13.045Z,952.8964
2023-04-02T05:12:14.493Z,952.8936
2023-04-02T05:13:15.913Z,952.8976
2023-04-02T05:14:17.416Z,952.9024
2023-04-02T05:15:18.867Z,952.9204
2023-04-02T05:16:20.383Z,952.9432
2023-04-02T05:17:21.870Z,952.9564
2023-04-02T05:18:23.372Z,952.9660
2023-04-02T05:19:24.824Z,952.9756
2023-04-02T05:20:26.263Z,952.9948
2023-04-02T05:21:27.669Z,953.0032
2023-04-02T05:22:29.109Z,953.0120
2023-04-02T05:23:30.614Z,953.0024
2023-04-02T05:24:31.998Z,953.0144
2023-04-02T05:25:33.669Z,953.0336
2023-04-02T05:26:35.183Z,953.0324
2023-04-02T05:27:36.681Z,953.0208
2023-04-02T05:28:38.132Z,953.0484
2023-04-02T05:29:39.647Z,953.0516
2023-04-02T05:30:41.251Z,953.0668
2023-04-02T05:31:42.795Z,953.0600
2023-04-02T05:32:44.367Z,953.0716
2023-04-02T05:33:45.866Z,953.0824
2023-04-02T05:34:47.343Z,953.0756
2023-04-02T05:35:48.867Z,953.0856
2023-04-02T05:36:50.356Z,953.1028
2023-04-02T05:37:51.809Z,953.1108
2023-04-02T05:38:53.277Z,953.0988
2023-04-02T05:39:54.792Z,953.0896
2023-04-02T05:40:56.275Z,953.0832
2023-04-02T05:41:57.761Z,953.0852
2023-04-02T05:42:59.197Z,953.0880
2023-04-02T05:44:00.665Z,953.0888
2023-04-02T05:45:02.134Z,953.0940
2023-04-02T05:46:03.804Z,953.1048
2023-04-02T05:47:05.244Z,953.1120
2023-04-02T05:48:06.748Z,953.1308
2023-04-02T05:49:08.183Z,953.1532
2023-04-02T05:50:09.663Z,953.1708
2023-04-02T05:51:11.094Z,953.1844
2023-04-02T05:52:12.556Z,953.1932
2023-04-02T05:53:14.095Z,953.1992
2023-04-02T05:54:15.563Z,953.2236
2023-04-02T05:55:17.386Z,953.2248
2023-04-02T05:56:18.813Z,953.2404
2023-04-02T05:57:20.270Z,953.2540
2023-04-02T05:58:35.573Z,953.2704
2023-04-02T05:59:21.738Z,953.2741
2023-04-02T06:00:23.180Z,953.2900
2023-04-02T06:01:24.620Z,953.3004
2023-04-02T06:02:26.086Z,953.3104
2023-04-02T06:03:27.745Z,953.3264
2023-04-02T06:04:29.223Z,953.3344
2023-04-02T06:05:30.641Z,953.3476
2023-04-02T06:06:32.075Z,953.3648
2023-04-02T06:07:33.516Z,953.3760
2023-04-02T06:08:35.057Z,953.3912
2023-04-02T06:09:36.519Z,953.4024
2023-04-02T06:10:37.972Z,953.4144
2023-04-02T06:11:39.417Z,953.4232
2023-04-02T06:12:40.922Z,953.4348
2023-04-02T06:13:42.406Z,953.4460
2023-04-02T06:14:43.935Z,953.4568
2023-04-02T06:15:47.247Z,953.4584
2023-04-02T06:16:46.801Z,953.4642
2023-04-02T06:17:48.301Z,953.4808
2023-04-02T06:18:49.789Z,953.4968
2023-04-02T06:19:51.251Z,953.5040
2023-04-02T06:20:52.720Z,953.5196
2023-04-02T06:21:54.124Z,953.5412
2023-04-02T06:22:55.623Z,953.5524
2023-04-02T06:23:57.102Z,953.5548
2023-04-02T06:24:58.543Z,953.5564
2023-04-02T06:26:00.013Z,953.5580
2023-04-02T06:27:01.491Z,953.5748
2023-04-02T06:28:02.982Z,953.5872
2023-04-02T06:29:04.465Z,953.5948
2023-04-02T06:30:05.917Z,953.5940
2023-04-02T06:31:07.552Z,953.5960
2023-04-02T06:32:08.992Z,953.5956
2023-04-02T06:33:10.521Z,953.6032
2023-04-02T06:34:12.000Z,953.6164
2023-04-02T06:35:13.442Z,953.6144
2023-04-02T06:36:14.878Z,953.6256
2023-04-02T06:37:16.252Z,953.6112
2023-04-02T06:38:17.745Z,953.6212
2023-04-02T06:39:19.184Z,953.6356
2023-04-02T06:40:20.640Z,953.6308
2023-04-02T06:41:22.861Z,953.6364
2023-04-02T06:42:24.331Z,953.6336
2023-04-02T06:43:25.780Z,953.6488
2023-04-02T06:44:27.254Z,953.6576
2023-04-02T06:45:28.681Z,953.6708
2023-04-02T06:46:30.172Z,953.6608
2023-04-02T06:47:31.704Z,953.6656
2023-04-02T06:48:33.280Z,953.6696
2023-04-02T06:49:34.701Z,953.6836
2023-04-02T06:50:36.168Z,953.6976
2023-04-02T06:51:37.609Z,953.7040
2023-04-02T06:52:39.072Z,953.7208
2023-04-02T06:53:40.517Z,953.7268
2023-04-02T06:54:41.948Z,953.7344
2023-04-02T06:55:43.422Z,953.7404
2023-04-02T06:56:44.779Z,953.7484
2023-04-02T06:57:46.244Z,953.7704
2023-04-02T06:58:47.709Z,953.7748
2023-04-02T06:59:49.132Z,953.7916
2023-04-02T07:00:50.513Z,953.8176
2023-04-02T07:01:51.998Z,953.8244
2023-04-02T07:02:55.152Z,953.8367
2023-04-02T07:03:58.447Z,953.8586
2023-04-02T07:05:00.864Z,953.8759
2023-04-02T07:06:02.273Z,953.8900
2023-04-02T07:07:03.734Z,953.9108
2023-04-02T07:08:05.208Z,953.9000
2023-04-02T07:09:07.641Z,953.9148
2023-04-02T07:10:09.172Z,953.9208
2023-04-02T07:11:10.649Z,953.9292
2023-04-02T07:12:12.062Z,953.9296
2023-04-02T07:13:13.533Z,953.9296
2023-04-02T07:14:15.002Z,953.9460
2023-04-02T07:15:16.586Z,953.9488
2023-04-02T07:16:18.093Z,953.9504
2023-04-02T07:17:19.640Z,953.9688
2023-04-02T07:18:21.198Z,953.9772
2023-04-02T07:19:22.769Z,953.9876
2023-04-02T07:20:24.238Z,953.9952
2023-04-02T07:21:25.683Z,954.0024
2023-04-02T07:22:27.091Z,954.0188
2023-04-02T07:23:28.560Z,954.0340
2023-04-02T07:24:30.030Z,954.0436
2023-04-02T07:25:31.487Z,954.0620
2023-04-02T07:26:32.932Z,954.0880
2023-04-02T07:27:34.379Z,954.1072
2023-04-02T07:28:35.859Z,954.1224
2023-04-02T07:29:37.271Z,954.1424
2023-04-02T07:30:38.688Z,954.1088
2023-04-02T07:31:40.230Z,954.1112
2023-04-02T07:32:41.674Z,954.1112
2023-04-02T07:33:43.081Z,954.1132
2023-04-02T07:34:44.485Z,954.1172
2023-04-02T07:35:46.028Z,954.1208
2023-04-02T07:36:47.441Z,954.1320
2023-04-02T07:37:48.894Z,954.1324
2023-04-02T07:38:50.303Z,954.1368
2023-04-02T07:39:51.809Z,954.1352
2023-04-02T07:40:53.238Z,954.1392
2023-04-02T07:41:54.568Z,954.1612
2023-04-02T07:42:56.038Z,954.1696
2023-04-02T07:43:57.524Z,954.1856
2023-04-02T07:44:58.926Z,954.2084
2023-04-02T07:46:00.339Z,954.2240
2023-04-02T07:47:01.834Z,954.2420
2023-04-02T07:48:03.495Z,954.2496
2023-04-02T07:49:05.010Z,954.2344
2023-04-02T07:50:06.491Z,954.2364
2023-04-02T07:51:07.919Z,954.2336
2023-04-02T07:52:09.373Z,954.2424
2023-04-02T07:53:10.786Z,954.2216
2023-04-02T07:54:12.254Z,954.2196
2023-04-02T07:55:13.672Z,954.2128
2023-04-02T07:56:15.104Z,954.2300
2023-04-02T07:57:16.556Z,954.2624
2023-04-02T07:58:17.975Z,954.2728
2023-04-02T07:59:19.442Z,954.2836
2023-04-02T08:00:20.860Z,954.2620
2023-04-02T08:01:22.279Z,954.2644
2023-04-02T08:02:23.703Z,954.2340
2023-04-02T08:03:25.318Z,954.2880
2023-04-02T08:04:26.845Z,954.3132
2023-04-02T08:05:28.331Z,954.3168
2023-04-02T08:06:29.776Z,954.2980
2023-04-02T08:07:31.229Z,954.3184
2023-04-02T08:08:32.685Z,954.3400
2023-04-02T08:09:34.123Z,954.3592
2023-04-02T08:10:35.639Z,954.3524
2023-04-02T08:11:37.154Z,954.3696
2023-04-02T08:12:38.678Z,954.3788
2023-04-02T08:13:40.131Z,954.3860
2023-04-02T08:14:41.639Z,954.3948
2023-04-02T08:15:43.028Z,954.4032
2023-04-02T08:16:44.586Z,954.4128
2023-04-02T08:17:46.029Z,954.4376
2023-04-02T08:18:47.473Z,954.4532
2023-04-02T08:19:55.130Z,954.4620
2023-04-02T08:20:49.011Z,954.4582
2023-04-02T08:21:50.466Z,954.4748
2023-04-02T08:22:51.945Z,954.4808
2023-04-02T08:23:53.371Z,954.4968
2023-04-02T08:24:54.912Z,954.5188
2023-04-02T08:25:56.366Z,954.5144
2023-04-02T08:26:57.847Z,954.5076
2023-04-02T08:27:59.292Z,954.4976
2023-04-02T08:29:00.853Z,954.4888
2023-04-02T08:30:02.316Z,954.4888
2023-04-02T08:31:03.853Z,954.4984
2023-04-02T08:32:05.276Z,954.5056
2023-04-02T08:33:06.768Z,954.5144
2023-04-02T08:34:08.195Z,954.5204
2023-04-02T08:35:09.731Z,954.5328
2023-04-02T08:36:11.304Z,954.5416
2023-04-02T08:37:12.733Z,954.5528
2023-04-02T08:38:14.140Z,954.5608
2023-04-02T08:39:15.586Z,954.5836
2023-04-02T08:40:17.023Z,954.5896
2023-04-02T08:41:18.571Z,954.5952
2023-04-02T08:42:19.984Z,954.6008
2023-04-02T08:43:23.109Z,954.5808
2023-04-02T08:44:22.973Z,954.5825
2023-04-02T08:45:25.595Z,954.5712
2023-04-02T08:46:24.918Z,954.6050
2023-04-02T08:47:26.420Z,954.5856
2023-04-02T08:48:27.841Z,954.6400
2023-04-02T08:49:29.322Z,954.6348
2023-04-02T08:50:30.861Z,954.6412
2023-04-02T08:51:32.302Z,954.6568
2023-04-02T08:52:33.740Z,954.6532
2023-04-02T08:53:35.206Z,954.6472
2023-04-02T08:54:36.676Z,954.6264
2023-04-02T08:55:38.240Z,954.6456
2023-04-02T08:56:39.737Z,954.6668
2023-04-02T08:57:41.182Z,954.6692
2023-04-02T08:58:42.610Z,954.6664
2023-04-02T08:59:44.107Z,954.6652
2023-04-02T09:00:45.562Z,954.6884
2023-04-02T09:01:47.031Z,954.6952
2023-04-02T09:02:48.480Z,954.6968
2023-04-02T09:03:49.916Z,954.6696
2023-04-02T09:04:51.439Z,954.6728
2023-04-02T09:05:52.933Z,954.6996
2023-04-02T09:06:54.369Z,954.7112
2023-04-02T09:07:55.811Z,954.7392
2023-04-02T09:08:57.267Z,954.7404
2023-04-02T09:09:58.836Z,954.7400
2023-04-02T09:11:00.306Z,954.7376
2023-04-02T09:12:01.803Z,954.7448
2023-04-02T09:13:03.198Z,954.7724
2023-04-02T09:14:04.747Z,954.7944
2023-04-02T09:15:06.214Z,954.7780
2023-04-02T09:16:07.792Z,954.7652
2023-04-02T09:17:09.251Z,954.7704
2023-04-02T09:18:10.741Z,954.7972
2023-04-02T09:19:12.166Z,954.8160
2023-04-02T09:20:13.661Z,954.8576
2023-04-02T09:21:15.112Z,954.8456
2023-04-02T09:22:16.593Z,954.8872
2023-04-02T09:23:18.044Z,954.9120
2023-04-02T09:24:19.523Z,954.8968
2023-04-02T09:25:21.021Z,954.8912
2023-04-02T09:26:22.460Z,954.8976
2023-04-02T09:27:23.893Z,954.9024
2023-04-02T09:28:25.341Z,954.9512
2023-04-02T09:29:26.769Z,954.9124
2023-04-02T09:30:28.257Z,954.9196
2023-04-02T09:31:29.705Z,954.9172
2023-04-02T09:32:31.165Z,954.9220
2023-04-02T09:33:32.536Z,954.9208
2023-04-02T09:34:34.159Z,954.9384
2023-04-02T09:35:35.597Z,954.9464
2023-04-02T09:36:37.051Z,954.9452
2023-04-02T09:37:38.464Z,954.9704
2023-04-02T09:38:39.955Z,954.9964
2023-04-02T09:39:41.430Z,954.9800
2023-04-02T09:40:43.097Z,955.0016
2023-04-02T09:41:48.186Z,955.0176
2023-04-02T09:42:44.590Z,955.0364
2023-04-02T09:43:46.046Z,955.0580
2023-04-02T09:44:47.516Z,955.0596
2023-04-02T09:45:49.282Z,955.0544
2023-04-02T09:46:50.764Z,955.0756
2023-04-02T09:47:52.240Z,955.1408
2023-04-02T09:48:53.703Z,955.1956
2023-04-02T09:49:55.149Z,955.2196
2023-04-02T09:50:56.639Z,955.2040
2023-04-02T09:51:58.732Z,955.2264
2023-04-02T09:53:00.212Z,955.2588
2023-04-02T09:54:01.681Z,955.2396
2023-04-02T09:55:03.137Z,955.2420
2023-04-02T09:56:04.617Z,955.2092
2023-04-02T09:57:06.120Z,955.2344
2023-04-02T09:58:07.575Z,955.2672
2023-04-02T09:59:09.025Z,955.2816
2023-04-02T10:00:18.371Z,955.2604
2023-04-02T10:01:10.586Z,955.2441
2023-04-02T10:02:12.024Z,955.2444
2023-04-02T10:03:13.478Z,955.2672
2023-04-02T10:04:14.951Z,955.2796
2023-04-02T10:05:23.549Z,955.2731
2023-04-02T10:06:15.550Z,955.2559
2023-04-02T10:07:16.970Z,955.2656
2023-04-02T10:08:18.446Z,955.2752
2023-04-02T10:09:19.915Z,955.2940
2023-04-02T10:10:21.406Z,955.2524
2023-04-02T10:11:22.973Z,955.2676
2023-04-02T10:12:24.930Z,955.2652
2023-04-02T10:13:26.364Z,955.2764
2023-04-02T10:14:27.829Z,955.2600
2023-04-02T10:15:29.222Z,955.2620
2023-04-02T10:16:30.708Z,955.2376
2023-04-02T10:17:32.178Z,955.2588
2023-04-02T10:18:33.722Z,955.2672
2023-04-02T10:19:35.179Z,955.2756
2023-04-02T10:20:48.597Z,955.2844
2023-04-02T10:21:36.653Z,955.2563
2023-04-02T10:22:38.117Z,955.2764
2023-04-02T10:23:39.591Z,955.2684
2023-04-02T10:24:41.052Z,955.2724
2023-04-02T10:25:42.508Z,955.2752
2023-04-02T10:26:43.990Z,955.2728
2023-04-02T10:27:45.402Z,955.2776
2023-04-02T10:28:46.895Z,955.2804
2023-04-02T10:29:48.331Z,955.2776
2023-04-02T10:30:49.814Z,955.2968
2023-04-02T10:31:51.231Z,955.3048
2023-04-02T10:32:52.728Z,955.3304
2023-04-02T10:33:54.189Z,955.3488
2023-04-02T10:34:55.622Z,955.3604
2023-04-02T10:35:57.123Z,955.3476
2023-04-02T10:36:58.541Z,955.3504
2023-04-02T10:37:59.994Z,955.3496
2023-04-02T10:39:01.414Z,955.3600
2023-04-02T10:40:02.845Z,955.3568
2023-04-02T10:41:04.324Z,955.3688
2023-04-02T10:42:05.723Z,955.3732
2023-04-02T10:43:07.181Z,955.3744
2023-04-02T10:44:18.998Z,955.3824
2023-04-02T10:45:08.707Z,955.3932
2023-04-02T10:46:10.205Z,955.4072
2023-04-02T10:47:11.737Z,955.4080
2023-04-02T10:48:13.192Z,955.3944
2023-04-02T10:49:14.672Z,955.4124
2023-04-02T10:50:16.100Z,955.4108
2023-04-02T10:51:17.596Z,955.4140
2023-04-02T10:52:19.038Z,955.4196
2023-04-02T10:53:20.485Z,955.4144
2023-04-02T10:54:21.899Z,955.4424
2023-04-02T10:55:23.366Z,955.4616
2023-04-02T10:56:24.832Z,955.4412
2023-04-02T10:57:26.304Z,955.4584
2023-04-02T10:58:27.739Z,955.4652
2023-04-02T10:59:29.194Z,955.4576
2023-04-02T11:00:30.655Z,955.4332
2023-04-02T11:01:32.156Z,955.4280
2023-04-02T11:02:33.594Z,955.4424
2023-04-02T11:03:35.197Z,955.4484
2023-04-02T11:04:36.675Z,955.4592
2023-04-02T11:05:38.158Z,955.4532
2023-04-02T11:06:39.586Z,955.4644
2023-04-02T11:07:41.021Z,955.4700
2023-04-02T11:08:42.417Z,955.4712
2023-04-02T11:09:43.896Z,955.4680
2023-04-02T11:10:45.343Z,955.4772
2023-04-02T11:11:46.789Z,955.5004
2023-04-02T11:12:48.199Z,955.5068
2023-04-02T11:13:49.657Z,955.5056
2023-04-02T11:14:51.114Z,955.5080
2023-04-02T11:15:52.579Z,955.4984
2023-04-02T11:16:54.038Z,955.4880
2023-04-02T11:17:55.513Z,955.5012
2023-04-02T11:18:56.954Z,955.4924
2023-04-02T11:19:58.377Z,955.5080
2023-04-02T11:20:59.834Z,955.4900
2023-04-02T11:22:03.113Z,955.4996
2023-04-02T11:23:01.818Z,955.4896
2023-04-02T11:24:03.218Z,955.4932
2023-04-02T11:25:04.672Z,955.4924
2023-04-02T11:26:06.115Z,955.4812
2023-04-02T11:27:07.650Z,955.4644
2023-04-02T11:28:09.073Z,955.4740
2023-04-02T11:29:10.532Z,955.4624
2023-04-02T11:30:11.972Z,955.4464
2023-04-02T11:31:13.406Z,955.4808
2023-04-02T11:32:14.818Z,955.4736
2023-04-02T11:33:18.692Z,955.4972
2023-04-02T11:34:17.554Z,955.5244
2023-04-02T11:35:19.012Z,955.5148
2023-04-02T11:36:20.420Z,955.5336
2023-04-02T11:37:21.911Z,955.5112
2023-04-02T11:38:23.294Z,955.4824
2023-04-02T11:39:24.726Z,955.4860
2023-04-02T11:40:26.154Z,955.4680
2023-04-02T11:41:27.576Z,955.4964
2023-04-02T11:42:29.023Z,955.5136
2023-04-02T11:43:30.455Z,955.5416
2023-04-02T11:44:31.838Z,955.5280
2023-04-02T11:45:40.167Z,955.5508
2023-04-02T11:46:33.221Z,955.5837
2023-04-02T11:47:34.660Z,955.6104
2023-04-02T11:48:36.273Z,955.6148
2023-04-02T11:49:37.788Z,955.6148
2023-04-02T11:50:38.255Z,955.6375
2023-04-02T11:51:39.762Z,955.6636
2023-04-02T11:52:41.272Z,955.6548
2023-04-02T11:53:42.649Z,955.6552
2023-04-02T11:54:44.074Z,955.6668
2023-04-02T11:55:45.418Z,955.6668
2023-04-02T11:56:46.793Z,955.6544
2023-04-02T11:57:48.176Z,955.6220
2023-04-02T11:58:49.527Z,955.6448
2023-04-02T11:59:50.863Z,955.6448
2023-04-02T12:00:52.267Z,955.6580
2023-04-02T12:01:53.633Z,955.6800